sensor_id;sensor_type;location;lat;lon;timestamp;P1;durP1;ratioP1;P2;durP2;ratioP2
51122;SDS011;37162;41.724;13.346;2023-05-29T00:01:30;3.42;;;3.10;;
51122;SDS011;37162;41.724;13.346;2023-05-29T00:03:56;2.80;;;2.50;;
51122;SDS011;37162;41.724;13.346;2023-05-29T00:06:24;6.28;;;2.85;;
51122;SDS011;37162;41.724;13.346;2023-05-29T00:08:49;3.20;;;2.90;;
51122;SDS011;37162;41.724;13.346;2023-05-29T00:11:14;6.35;;;3.33;;
51122;SDS011;37162;41.724;13.346;2023-05-29T00:13:40;3.22;;;2.92;;
51122;SDS011;37162;41.724;13.346;2023-05-29T00:16:05;3.35;;;2.95;;
51122;SDS011;37162;41.724;13.346;2023-05-29T00:18:31;4.30;;;3.20;;
51122;SDS011;37162;41.724;13.346;2023-05-29T00:20:56;3.38;;;2.97;;
51122;SDS011;37162;41.724;13.346;2023-05-29T00:23:22;4.93;;;3.63;;
51122;SDS011;37162;41.724;13.346;2023-05-29T00:25:48;3.45;;;2.78;;
51122;SDS011;37162;41.724;13.346;2023-05-29T00:28:13;6.35;;;3.20;;
51122;SDS011;37162;41.724;13.346;2023-05-29T00:30:39;3.97;;;2.90;;
51122;SDS011;37162;41.724;13.346;2023-05-29T00:33:04;3.88;;;3.08;;
51122;SDS011;37162;41.724;13.346;2023-05-29T00:35:30;3.75;;;3.13;;
51122;SDS011;37162;41.724;13.346;2023-05-29T00:37:55;3.22;;;2.90;;
51122;SDS011;37162;41.724;13.346;2023-05-29T00:40:21;3.47;;;2.88;;
51122;SDS011;37162;41.724;13.346;2023-05-29T00:42:46;5.13;;;3.22;;
51122;SDS011;37162;41.724;13.346;2023-05-29T00:45:12;3.40;;;2.72;;
51122;SDS011;37162;41.724;13.346;2023-05-29T00:47:38;5.50;;;3.17;;
51122;SDS011;37162;41.724;13.346;2023-05-29T00:50:05;3.60;;;3.15;;
51122;SDS011;37162;41.724;13.346;2023-05-29T00:52:33;3.00;;;2.53;;
51122;SDS011;37162;41.724;13.346;2023-05-29T00:55:00;4.47;;;3.20;;
51122;SDS011;37162;41.724;13.346;2023-05-29T00:57:27;8.20;;;3.40;;
51122;SDS011;37162;41.724;13.346;2023-05-29T00:59:53;4.22;;;3.00;;
51122;SDS011;37162;41.724;13.346;2023-05-29T01:13:27;4.93;;;2.65;;
51122;SDS011;37162;41.724;13.346;2023-05-29T01:18:51;4.95;;;3.17;;
51122;SDS011;37162;41.724;13.346;2023-05-29T01:21:49;4.18;;;3.25;;
51122;SDS011;37162;41.724;13.346;2023-05-29T01:27:09;4.25;;;3.13;;
51122;SDS011;37162;41.724;13.346;2023-05-29T01:29:35;4.70;;;3.55;;
51122;SDS011;37162;41.724;13.346;2023-05-29T01:32:05;6.35;;;3.67;;
51122;SDS011;37162;41.724;13.346;2023-05-29T01:34:31;3.85;;;2.83;;
51122;SDS011;37162;41.724;13.346;2023-05-29T01:36:57;5.68;;;3.17;;
51122;SDS011;37162;41.724;13.346;2023-05-29T01:39:22;4.18;;;3.00;;
51122;SDS011;37162;41.724;13.346;2023-05-29T01:41:49;3.20;;;2.85;;
51122;SDS011;37162;41.724;13.346;2023-05-29T01:44:15;4.60;;;2.83;;
51122;SDS011;37162;41.724;13.346;2023-05-29T01:46:42;4.68;;;2.92;;
51122;SDS011;37162;41.724;13.346;2023-05-29T01:49:09;4.40;;;3.00;;
51122;SDS011;37162;41.724;13.346;2023-05-29T01:51:36;3.92;;;2.85;;
51122;SDS011;37162;41.724;13.346;2023-05-29T01:54:02;6.40;;;3.22;;
51122;SDS011;37162;41.724;13.346;2023-05-29T01:56:28;3.97;;;3.15;;
51122;SDS011;37162;41.724;13.346;2023-05-29T01:58:56;2.92;;;2.63;;
51122;SDS011;37162;41.724;13.346;2023-05-29T02:01:23;3.65;;;2.92;;
51122;SDS011;37162;41.724;13.346;2023-05-29T02:03:49;3.20;;;2.88;;
51122;SDS011;37162;41.724;13.346;2023-05-29T02:06:16;3.55;;;2.90;;
51122;SDS011;37162;41.724;13.346;2023-05-29T02:08:42;4.15;;;3.33;;
51122;SDS011;37162;41.724;13.346;2023-05-29T02:11:07;4.15;;;3.15;;
51122;SDS011;37162;41.724;13.346;2023-05-29T02:13:33;4.93;;;3.28;;
51122;SDS011;37162;41.724;13.346;2023-05-29T02:15:58;3.78;;;3.22;;
51122;SDS011;37162;41.724;13.346;2023-05-29T02:18:24;5.70;;;3.47;;
51122;SDS011;37162;41.724;13.346;2023-05-29T02:20:50;3.67;;;3.10;;
51122;SDS011;37162;41.724;13.346;2023-05-29T02:23:16;5.40;;;3.33;;
51122;SDS011;37162;41.724;13.346;2023-05-29T02:25:41;5.88;;;3.30;;
51122;SDS011;37162;41.724;13.346;2023-05-29T02:28:07;5.13;;;3.03;;
51122;SDS011;37162;41.724;13.346;2023-05-29T02:30:33;3.67;;;2.95;;
51122;SDS011;37162;41.724;13.346;2023-05-29T02:32:59;3.70;;;3.05;;
51122;SDS011;37162;41.724;13.346;2023-05-29T02:35:25;3.75;;;2.70;;
51122;SDS011;37162;41.724;13.346;2023-05-29T02:37:51;3.40;;;2.58;;
51122;SDS011;37162;41.724;13.346;2023-05-29T02:40:17;4.53;;;3.20;;
51122;SDS011;37162;41.724;13.346;2023-05-29T02:42:43;4.15;;;3.00;;
51122;SDS011;37162;41.724;13.346;2023-05-29T02:45:09;3.00;;;2.70;;
51122;SDS011;37162;41.724;13.346;2023-05-29T02:47:35;3.83;;;3.13;;
51122;SDS011;37162;41.724;13.346;2023-05-29T02:50:01;5.60;;;3.22;;
51122;SDS011;37162;41.724;13.346;2023-05-29T02:52:28;3.25;;;2.90;;
51122;SDS011;37162;41.724;13.346;2023-05-29T02:54:55;5.68;;;3.13;;
51122;SDS011;37162;41.724;13.346;2023-05-29T02:57:21;3.83;;;3.15;;
51122;SDS011;37162;41.724;13.346;2023-05-29T02:59:46;3.25;;;2.90;;
51122;SDS011;37162;41.724;13.346;2023-05-29T03:02:12;3.67;;;3.00;;
51122;SDS011;37162;41.724;13.346;2023-05-29T03:04:37;4.20;;;3.25;;
51122;SDS011;37162;41.724;13.346;2023-05-29T03:07:03;4.05;;;3.28;;
51122;SDS011;37162;41.724;13.346;2023-05-29T03:09:28;3.70;;;3.30;;
51122;SDS011;37162;41.724;13.346;2023-05-29T03:11:54;4.28;;;3.30;;
51122;SDS011;37162;41.724;13.346;2023-05-29T03:14:19;4.95;;;3.30;;
51122;SDS011;37162;41.724;13.346;2023-05-29T03:16:46;5.32;;;3.22;;
51122;SDS011;37162;41.724;13.346;2023-05-29T03:19:12;5.18;;;3.42;;
51122;SDS011;37162;41.724;13.346;2023-05-29T03:21:37;4.22;;;3.50;;
51122;SDS011;37162;41.724;13.346;2023-05-29T03:24:03;3.88;;;3.30;;
51122;SDS011;37162;41.724;13.346;2023-05-29T03:26:28;3.60;;;3.30;;
51122;SDS011;37162;41.724;13.346;2023-05-29T03:28:54;3.95;;;3.30;;
51122;SDS011;37162;41.724;13.346;2023-05-29T03:31:20;5.43;;;3.13;;
51122;SDS011;37162;41.724;13.346;2023-05-29T03:33:45;3.53;;;2.97;;
51122;SDS011;37162;41.724;13.346;2023-05-29T03:36:11;3.30;;;3.00;;
51122;SDS011;37162;41.724;13.346;2023-05-29T03:38:37;4.15;;;3.10;;
51122;SDS011;37162;41.724;13.346;2023-05-29T03:41:02;3.97;;;3.25;;
51122;SDS011;37162;41.724;13.346;2023-05-29T03:43:28;3.75;;;3.08;;
51122;SDS011;37162;41.724;13.346;2023-05-29T03:45:53;3.88;;;3.47;;
51122;SDS011;37162;41.724;13.346;2023-05-29T03:48:18;4.60;;;2.90;;
51122;SDS011;37162;41.724;13.346;2023-05-29T03:50:45;6.47;;;3.55;;
51122;SDS011;37162;41.724;13.346;2023-05-29T03:53:11;3.90;;;3.35;;
51122;SDS011;37162;41.724;13.346;2023-05-29T03:55:36;3.88;;;3.10;;
51122;SDS011;37162;41.724;13.346;2023-05-29T03:58:02;3.53;;;3.22;;
51122;SDS011;37162;41.724;13.346;2023-05-29T04:00:27;3.45;;;2.90;;
51122;SDS011;37162;41.724;13.346;2023-05-29T04:02:54;4.60;;;3.42;;
51122;SDS011;37162;41.724;13.346;2023-05-29T04:05:20;6.35;;;2.92;;
51122;SDS011;37162;41.724;13.346;2023-05-29T04:07:46;4.82;;;3.47;;
51122;SDS011;37162;41.724;13.346;2023-05-29T04:10:12;4.07;;;3.10;;
51122;SDS011;37162;41.724;13.346;2023-05-29T04:12:37;4.15;;;2.85;;
51122;SDS011;37162;41.724;13.346;2023-05-29T04:15:03;3.70;;;3.35;;
51122;SDS011;37162;41.724;13.346;2023-05-29T04:17:29;4.05;;;3.33;;
51122;SDS011;37162;41.724;13.346;2023-05-29T04:19:54;3.45;;;3.10;;
51122;SDS011;37162;41.724;13.346;2023-05-29T04:22:20;3.83;;;3.33;;
51122;SDS011;37162;41.724;13.346;2023-05-29T04:24:45;4.55;;;3.42;;
51122;SDS011;37162;41.724;13.346;2023-05-29T04:27:11;4.53;;;3.17;;
51122;SDS011;37162;41.724;13.346;2023-05-29T04:29:41;3.72;;;3.20;;
51122;SDS011;37162;41.724;13.346;2023-05-29T04:32:09;4.45;;;3.03;;
51122;SDS011;37162;41.724;13.346;2023-05-29T04:34:36;3.78;;;3.20;;
51122;SDS011;37162;41.724;13.346;2023-05-29T04:37:05;8.00;;;3.53;;
51122;SDS011;37162;41.724;13.346;2023-05-29T04:39:31;5.25;;;3.40;;
51122;SDS011;37162;41.724;13.346;2023-05-29T04:41:56;6.63;;;3.50;;
51122;SDS011;37162;41.724;13.346;2023-05-29T04:44:25;4.47;;;3.28;;
51122;SDS011;37162;41.724;13.346;2023-05-29T04:46:51;8.18;;;3.80;;
51122;SDS011;37162;41.724;13.346;2023-05-29T04:49:17;3.67;;;3.25;;
51122;SDS011;37162;41.724;13.346;2023-05-29T04:51:43;4.68;;;3.88;;
51122;SDS011;37162;41.724;13.346;2023-05-29T04:54:10;5.00;;;3.53;;
51122;SDS011;37162;41.724;13.346;2023-05-29T04:56:36;3.60;;;2.95;;
51122;SDS011;37162;41.724;13.346;2023-05-29T04:59:02;4.45;;;3.55;;
51122;SDS011;37162;41.724;13.346;2023-05-29T05:01:27;4.75;;;3.63;;
51122;SDS011;37162;41.724;13.346;2023-05-29T05:03:54;5.43;;;3.10;;
51122;SDS011;37162;41.724;13.346;2023-05-29T05:06:22;4.05;;;3.25;;
51122;SDS011;37162;41.724;13.346;2023-05-29T05:08:47;3.97;;;3.28;;
51122;SDS011;37162;41.724;13.346;2023-05-29T05:11:14;4.75;;;3.17;;
51122;SDS011;37162;41.724;13.346;2023-05-29T05:13:39;3.88;;;3.30;;
51122;SDS011;37162;41.724;13.346;2023-05-29T05:16:05;4.35;;;3.60;;
51122;SDS011;37162;41.724;13.346;2023-05-29T05:18:30;4.95;;;3.30;;
51122;SDS011;37162;41.724;13.346;2023-05-29T05:20:56;3.45;;;3.15;;
51122;SDS011;37162;41.724;13.346;2023-05-29T05:23:21;3.78;;;3.22;;
51122;SDS011;37162;41.724;13.346;2023-05-29T05:25:47;3.85;;;3.00;;
51122;SDS011;37162;41.724;13.346;2023-05-29T05:28:12;4.60;;;3.70;;
51122;SDS011;37162;41.724;13.346;2023-05-29T05:30:38;4.30;;;3.58;;
51122;SDS011;37162;41.724;13.346;2023-05-29T05:33:03;4.10;;;3.60;;
51122;SDS011;37162;41.724;13.346;2023-05-29T05:35:29;5.05;;;3.53;;
51122;SDS011;37162;41.724;13.346;2023-05-29T05:37:54;4.70;;;3.35;;
51122;SDS011;37162;41.724;13.346;2023-05-29T05:40:23;4.68;;;3.70;;
51122;SDS011;37162;41.724;13.346;2023-05-29T05:42:48;4.53;;;3.25;;
51122;SDS011;37162;41.724;13.346;2023-05-29T05:45:14;4.95;;;3.30;;
51122;SDS011;37162;41.724;13.346;2023-05-29T05:47:39;6.35;;;3.53;;
51122;SDS011;37162;41.724;13.346;2023-05-29T05:50:05;5.88;;;3.60;;
51122;SDS011;37162;41.724;13.346;2023-05-29T05:52:31;5.10;;;4.35;;
51122;SDS011;37162;41.724;13.346;2023-05-29T05:54:57;4.80;;;3.65;;
51122;SDS011;37162;41.724;13.346;2023-05-29T05:57:23;8.02;;;3.88;;
51122;SDS011;37162;41.724;13.346;2023-05-29T05:59:48;4.55;;;3.88;;
51122;SDS011;37162;41.724;13.346;2023-05-29T06:02:13;5.63;;;4.05;;
51122;SDS011;37162;41.724;13.346;2023-05-29T06:04:39;4.95;;;3.65;;
51122;SDS011;37162;41.724;13.346;2023-05-29T06:07:05;5.60;;;3.88;;
51122;SDS011;37162;41.724;13.346;2023-05-29T06:09:31;3.95;;;3.55;;
51122;SDS011;37162;41.724;13.346;2023-05-29T06:11:59;6.85;;;3.78;;
51122;SDS011;37162;41.724;13.346;2023-05-29T06:14:25;6.38;;;3.88;;
51122;SDS011;37162;41.724;13.346;2023-05-29T06:16:51;8.10;;;4.20;;
51122;SDS011;37162;41.724;13.346;2023-05-29T06:19:16;5.60;;;4.50;;
51122;SDS011;37162;41.724;13.346;2023-05-29T06:21:42;6.20;;;4.10;;
51122;SDS011;37162;41.724;13.346;2023-05-29T06:24:07;3.92;;;3.47;;
51122;SDS011;37162;41.724;13.346;2023-05-29T06:26:33;5.43;;;3.78;;
51122;SDS011;37162;41.724;13.346;2023-05-29T06:28:58;3.80;;;3.30;;
51122;SDS011;37162;41.724;13.346;2023-05-29T06:31:24;6.57;;;3.42;;
51122;SDS011;37162;41.724;13.346;2023-05-29T06:33:50;6.93;;;3.90;;
51122;SDS011;37162;41.724;13.346;2023-05-29T06:36:15;6.38;;;3.20;;
51122;SDS011;37162;41.724;13.346;2023-05-29T06:38:45;5.25;;;3.85;;
51122;SDS011;37162;41.724;13.346;2023-05-29T06:43:38;5.25;;;3.65;;
51122;SDS011;37162;41.724;13.346;2023-05-29T06:46:04;3.58;;;3.28;;
51122;SDS011;37162;41.724;13.346;2023-05-29T06:48:32;3.38;;;2.63;;
51122;SDS011;37162;41.724;13.346;2023-05-29T06:51:01;4.25;;;3.58;;
51122;SDS011;37162;41.724;13.346;2023-05-29T06:55:59;8.80;;;3.95;;
51122;SDS011;37162;41.724;13.346;2023-05-29T06:58:24;6.35;;;3.72;;
51122;SDS011;37162;41.724;13.346;2023-05-29T07:00:50;6.22;;;3.53;;
51122;SDS011;37162;41.724;13.346;2023-05-29T07:03:15;3.97;;;3.53;;
51122;SDS011;37162;41.724;13.346;2023-05-29T07:05:41;3.75;;;3.35;;
51122;SDS011;37162;41.724;13.346;2023-05-29T07:08:06;3.30;;;3.00;;
51122;SDS011;37162;41.724;13.346;2023-05-29T07:10:32;10.00;;;4.30;;
51122;SDS011;37162;41.724;13.346;2023-05-29T07:12:57;14.43;;;5.38;;
51122;SDS011;37162;41.724;13.346;2023-05-29T07:15:23;16.00;;;4.05;;
51122;SDS011;37162;41.724;13.346;2023-05-29T07:17:48;4.57;;;3.33;;
51122;SDS011;37162;41.724;13.346;2023-05-29T07:20:14;13.00;;;3.63;;
51122;SDS011;37162;41.724;13.346;2023-05-29T07:22:40;37.47;;;5.80;;
51122;SDS011;37162;41.724;13.346;2023-05-29T07:25:05;5.70;;;3.97;;
51122;SDS011;37162;41.724;13.346;2023-05-29T07:27:31;11.52;;;4.18;;
51122;SDS011;37162;41.724;13.346;2023-05-29T07:29:57;5.85;;;4.30;;
51122;SDS011;37162;41.724;13.346;2023-05-29T07:32:22;4.50;;;3.50;;
51122;SDS011;37162;41.724;13.346;2023-05-29T07:34:48;6.47;;;4.05;;
51122;SDS011;37162;41.724;13.346;2023-05-29T07:37:15;5.97;;;3.97;;
51122;SDS011;37162;41.724;13.346;2023-05-29T07:39:41;5.00;;;3.63;;
51122;SDS011;37162;41.724;13.346;2023-05-29T07:42:07;6.75;;;3.88;;
51122;SDS011;37162;41.724;13.346;2023-05-29T07:44:33;6.43;;;3.85;;
51122;SDS011;37162;41.724;13.346;2023-05-29T07:46:58;4.78;;;4.28;;
51122;SDS011;37162;41.724;13.346;2023-05-29T07:49:24;4.40;;;3.65;;
51122;SDS011;37162;41.724;13.346;2023-05-29T07:51:49;4.05;;;3.13;;
51122;SDS011;37162;41.724;13.346;2023-05-29T07:54:15;7.55;;;3.63;;
51122;SDS011;37162;41.724;13.346;2023-05-29T07:56:43;7.28;;;4.13;;
51122;SDS011;37162;41.724;13.346;2023-05-29T07:59:09;4.72;;;3.80;;
51122;SDS011;37162;41.724;13.346;2023-05-29T08:01:34;4.38;;;3.67;;
51122;SDS011;37162;41.724;13.346;2023-05-29T08:04:00;4.38;;;3.67;;
51122;SDS011;37162;41.724;13.346;2023-05-29T08:06:26;5.93;;;3.58;;
51122;SDS011;37162;41.724;13.346;2023-05-29T08:08:51;5.97;;;3.55;;
51122;SDS011;37162;41.724;13.346;2023-05-29T08:11:17;7.53;;;3.67;;
51122;SDS011;37162;41.724;13.346;2023-05-29T08:13:43;4.18;;;3.78;;
51122;SDS011;37162;41.724;13.346;2023-05-29T08:16:09;4.15;;;3.75;;
51122;SDS011;37162;41.724;13.346;2023-05-29T08:18:34;6.95;;;3.83;;
51122;SDS011;37162;41.724;13.346;2023-05-29T08:21:00;4.72;;;4.13;;
51122;SDS011;37162;41.724;13.346;2023-05-29T08:23:25;4.60;;;4.07;;
51122;SDS011;37162;41.724;13.346;2023-05-29T08:25:51;4.18;;;3.78;;
51122;SDS011;37162;41.724;13.346;2023-05-29T08:28:16;7.35;;;4.45;;
51122;SDS011;37162;41.724;13.346;2023-05-29T08:30:42;5.40;;;3.95;;
51122;SDS011;37162;41.724;13.346;2023-05-29T08:33:07;6.32;;;4.22;;
51122;SDS011;37162;41.724;13.346;2023-05-29T08:35:33;4.45;;;3.70;;
51122;SDS011;37162;41.724;13.346;2023-05-29T08:37:58;8.52;;;4.65;;
51122;SDS011;37162;41.724;13.346;2023-05-29T08:40:24;5.25;;;4.35;;
51122;SDS011;37162;41.724;13.346;2023-05-29T08:45:38;4.97;;;3.28;;
51122;SDS011;37162;41.724;13.346;2023-05-29T08:48:07;4.57;;;3.55;;
51122;SDS011;37162;41.724;13.346;2023-05-29T08:50:35;3.92;;;3.53;;
51122;SDS011;37162;41.724;13.346;2023-05-29T08:53:01;6.90;;;4.15;;
51122;SDS011;37162;41.724;13.346;2023-05-29T08:55:28;4.22;;;3.67;;
51122;SDS011;37162;41.724;13.346;2023-05-29T08:57:54;5.13;;;3.95;;
51122;SDS011;37162;41.724;13.346;2023-05-29T09:00:21;6.15;;;4.03;;
51122;SDS011;37162;41.724;13.346;2023-05-29T09:02:53;4.10;;;3.55;;
51122;SDS011;37162;41.724;13.346;2023-05-29T09:05:20;4.32;;;3.72;;
51122;SDS011;37162;41.724;13.346;2023-05-29T09:07:46;4.93;;;4.30;;
51122;SDS011;37162;41.724;13.346;2023-05-29T09:10:12;6.88;;;4.43;;
51122;SDS011;37162;41.724;13.346;2023-05-29T09:12:38;5.32;;;4.15;;
51122;SDS011;37162;41.724;13.346;2023-05-29T09:15:13;5.30;;;4.43;;
51122;SDS011;37162;41.724;13.346;2023-05-29T09:17:42;4.72;;;4.05;;
51122;SDS011;37162;41.724;13.346;2023-05-29T09:20:14;4.75;;;3.50;;
51122;SDS011;37162;41.724;13.346;2023-05-29T09:22:42;4.50;;;3.55;;
51122;SDS011;37162;41.724;13.346;2023-05-29T09:25:11;5.28;;;3.95;;
51122;SDS011;37162;41.724;13.346;2023-05-29T09:27:40;4.07;;;3.35;;
51122;SDS011;37162;41.724;13.346;2023-05-29T09:30:05;4.68;;;4.15;;
51122;SDS011;37162;41.724;13.346;2023-05-29T09:32:34;6.65;;;4.28;;
51122;SDS011;37162;41.724;13.346;2023-05-29T09:35:24;6.40;;;4.65;;
51122;SDS011;37162;41.724;13.346;2023-05-29T09:37:49;14.20;;;4.63;;
51122;SDS011;37162;41.724;13.346;2023-05-29T09:40:15;12.90;;;4.60;;
51122;SDS011;37162;41.724;13.346;2023-05-29T09:42:40;4.63;;;4.00;;
51122;SDS011;37162;41.724;13.346;2023-05-29T09:45:06;5.53;;;3.78;;
51122;SDS011;37162;41.724;13.346;2023-05-29T09:47:33;13.10;;;4.72;;
51122;SDS011;37162;41.724;13.346;2023-05-29T09:50:00;9.40;;;4.35;;
51122;SDS011;37162;41.724;13.346;2023-05-29T09:52:26;13.05;;;5.10;;
51122;SDS011;37162;41.724;13.346;2023-05-29T09:54:55;8.55;;;4.93;;
51122;SDS011;37162;41.724;13.346;2023-05-29T09:57:21;5.85;;;3.90;;
51122;SDS011;37162;41.724;13.346;2023-05-29T09:59:49;5.68;;;4.20;;
51122;SDS011;37162;41.724;13.346;2023-05-29T10:02:17;7.18;;;4.05;;
51122;SDS011;37162;41.724;13.346;2023-05-29T10:04:43;7.97;;;4.25;;
51122;SDS011;37162;41.724;13.346;2023-05-29T10:07:15;5.85;;;3.83;;
51122;SDS011;37162;41.724;13.346;2023-05-29T10:09:52;7.07;;;4.13;;
51122;SDS011;37162;41.724;13.346;2023-05-29T10:12:25;5.05;;;3.92;;
51122;SDS011;37162;41.724;13.346;2023-05-29T10:14:53;10.98;;;4.05;;
51122;SDS011;37162;41.724;13.346;2023-05-29T10:17:26;7.30;;;4.30;;
51122;SDS011;37162;41.724;13.346;2023-05-29T10:20:01;6.35;;;4.38;;
51122;SDS011;37162;41.724;13.346;2023-05-29T10:22:31;7.20;;;4.38;;
51122;SDS011;37162;41.724;13.346;2023-05-29T10:24:57;9.48;;;4.80;;
51122;SDS011;37162;41.724;13.346;2023-05-29T10:27:23;5.68;;;3.97;;
51122;SDS011;37162;41.724;13.346;2023-05-29T10:30:08;4.70;;;4.20;;
51122;SDS011;37162;41.724;13.346;2023-05-29T10:37:55;5.07;;;3.70;;
51122;SDS011;37162;41.724;13.346;2023-05-29T10:40:25;4.65;;;3.92;;
51122;SDS011;37162;41.724;13.346;2023-05-29T10:42:52;5.43;;;3.95;;
51122;SDS011;37162;41.724;13.346;2023-05-29T10:47:54;4.28;;;3.85;;
51122;SDS011;37162;41.724;13.346;2023-05-29T10:53:14;6.35;;;4.00;;
51122;SDS011;37162;41.724;13.346;2023-05-29T10:55:42;5.22;;;4.30;;
51122;SDS011;37162;41.724;13.346;2023-05-29T10:58:14;4.90;;;3.35;;
51122;SDS011;37162;41.724;13.346;2023-05-29T11:00:44;9.35;;;4.07;;
51122;SDS011;37162;41.724;13.346;2023-05-29T11:03:12;6.18;;;3.78;;
51122;SDS011;37162;41.724;13.346;2023-05-29T11:11:14;4.70;;;3.22;;
51122;SDS011;37162;41.724;13.346;2023-05-29T11:13:40;4.68;;;3.97;;
51122;SDS011;37162;41.724;13.346;2023-05-29T11:18:58;3.90;;;3.50;;
51122;SDS011;37162;41.724;13.346;2023-05-29T11:21:38;5.28;;;3.83;;
51122;SDS011;37162;41.724;13.346;2023-05-29T11:27:03;3.67;;;3.35;;
51122;SDS011;37162;41.724;13.346;2023-05-29T11:29:33;4.47;;;3.33;;
51122;SDS011;37162;41.724;13.346;2023-05-29T11:31:59;4.47;;;3.55;;
51122;SDS011;37162;41.724;13.346;2023-05-29T11:34:28;4.35;;;3.28;;
51122;SDS011;37162;41.724;13.346;2023-05-29T11:36:58;5.43;;;3.60;;
51122;SDS011;37162;41.724;13.346;2023-05-29T11:39:25;5.28;;;3.20;;
51122;SDS011;37162;41.724;13.346;2023-05-29T11:41:51;5.07;;;3.35;;
51122;SDS011;37162;41.724;13.346;2023-05-29T11:44:20;5.00;;;3.70;;
51122;SDS011;37162;41.724;13.346;2023-05-29T11:46:46;6.75;;;4.07;;
51122;SDS011;37162;41.724;13.346;2023-05-29T11:49:11;4.20;;;3.65;;
51122;SDS011;37162;41.724;13.346;2023-05-29T11:51:37;4.05;;;3.13;;
51122;SDS011;37162;41.724;13.346;2023-05-29T11:54:02;4.40;;;3.20;;
51122;SDS011;37162;41.724;13.346;2023-05-29T11:56:28;3.95;;;3.25;;
51122;SDS011;37162;41.724;13.346;2023-05-29T11:58:57;4.85;;;3.10;;
51122;SDS011;37162;41.724;13.346;2023-05-29T12:01:25;4.78;;;3.28;;
51122;SDS011;37162;41.724;13.346;2023-05-29T12:03:51;4.88;;;3.17;;
51122;SDS011;37162;41.724;13.346;2023-05-29T12:06:33;3.63;;;2.85;;
51122;SDS011;37162;41.724;13.346;2023-05-29T12:09:00;4.60;;;3.03;;
51122;SDS011;37162;41.724;13.346;2023-05-29T12:11:27;4.50;;;3.72;;
51122;SDS011;37162;41.724;13.346;2023-05-29T12:13:57;3.65;;;2.90;;
51122;SDS011;37162;41.724;13.346;2023-05-29T12:16:24;3.25;;;2.95;;
51122;SDS011;37162;41.724;13.346;2023-05-29T12:18:51;3.97;;;2.78;;
51122;SDS011;37162;41.724;13.346;2023-05-29T12:21:17;6.90;;;3.08;;
51122;SDS011;37162;41.724;13.346;2023-05-29T12:23:47;4.05;;;3.30;;
51122;SDS011;37162;41.724;13.346;2023-05-29T12:26:13;5.35;;;3.30;;
51122;SDS011;37162;41.724;13.346;2023-05-29T12:28:44;4.68;;;3.15;;
51122;SDS011;37162;41.724;13.346;2023-05-29T12:31:11;3.63;;;3.28;;
51122;SDS011;37162;41.724;13.346;2023-05-29T12:33:36;4.38;;;2.88;;
51122;SDS011;37162;41.724;13.346;2023-05-29T12:36:08;6.00;;;3.47;;
51122;SDS011;37162;41.724;13.346;2023-05-29T12:38:48;4.15;;;3.00;;
51122;SDS011;37162;41.724;13.346;2023-05-29T12:41:33;3.95;;;3.13;;
51122;SDS011;37162;41.724;13.346;2023-05-29T12:44:01;3.45;;;3.15;;
51122;SDS011;37162;41.724;13.346;2023-05-29T12:46:34;5.05;;;3.17;;
51122;SDS011;37162;41.724;13.346;2023-05-29T12:49:13;4.90;;;3.88;;
51122;SDS011;37162;41.724;13.346;2023-05-29T12:51:44;4.22;;;2.58;;
51122;SDS011;37162;41.724;13.346;2023-05-29T12:54:11;3.40;;;3.10;;
51122;SDS011;37162;41.724;13.346;2023-05-29T12:56:38;7.93;;;3.30;;
51122;SDS011;37162;41.724;13.346;2023-05-29T12:59:07;7.85;;;3.90;;
51122;SDS011;37162;41.724;13.346;2023-05-29T13:01:33;11.00;;;3.35;;
51122;SDS011;37162;41.724;13.346;2023-05-29T13:03:58;4.95;;;3.40;;
51122;SDS011;37162;41.724;13.346;2023-05-29T13:06:24;3.72;;;2.97;;
51122;SDS011;37162;41.724;13.346;2023-05-29T13:08:49;5.53;;;2.80;;
51122;SDS011;37162;41.724;13.346;2023-05-29T13:11:15;4.82;;;3.25;;
51122;SDS011;37162;41.724;13.346;2023-05-29T13:13:40;4.80;;;4.25;;
51122;SDS011;37162;41.724;13.346;2023-05-29T13:16:06;4.30;;;2.97;;
51122;SDS011;37162;41.724;13.346;2023-05-29T13:18:31;5.43;;;3.20;;
51122;SDS011;37162;41.724;13.346;2023-05-29T13:20:57;5.95;;;3.10;;
51122;SDS011;37162;41.724;13.346;2023-05-29T13:23:22;5.97;;;3.28;;
51122;SDS011;37162;41.724;13.346;2023-05-29T13:25:47;3.85;;;2.92;;
51122;SDS011;37162;41.724;13.346;2023-05-29T13:28:14;12.90;;;3.90;;
51122;SDS011;37162;41.724;13.346;2023-05-29T13:30:40;4.00;;;3.08;;
51122;SDS011;37162;41.724;13.346;2023-05-29T13:33:06;3.60;;;3.00;;
51122;SDS011;37162;41.724;13.346;2023-05-29T13:35:31;3.00;;;2.70;;
51122;SDS011;37162;41.724;13.346;2023-05-29T13:37:56;4.45;;;3.10;;
51122;SDS011;37162;41.724;13.346;2023-05-29T13:40:22;6.47;;;3.35;;
51122;SDS011;37162;41.724;13.346;2023-05-29T13:42:47;5.45;;;4.05;;
51122;SDS011;37162;41.724;13.346;2023-05-29T13:45:13;4.70;;;3.33;;
51122;SDS011;37162;41.724;13.346;2023-05-29T13:47:39;3.47;;;3.15;;
51122;SDS011;37162;41.724;13.346;2023-05-29T13:50:05;6.88;;;3.30;;
51122;SDS011;37162;41.724;13.346;2023-05-29T13:52:32;6.93;;;3.70;;
51122;SDS011;37162;41.724;13.346;2023-05-29T13:54:57;5.22;;;3.50;;
51122;SDS011;37162;41.724;13.346;2023-05-29T13:57:27;3.97;;;3.58;;
51122;SDS011;37162;41.724;13.346;2023-05-29T14:00:03;3.97;;;3.28;;
51122;SDS011;37162;41.724;13.346;2023-05-29T14:02:33;4.03;;;3.63;;
51122;SDS011;37162;41.724;13.346;2023-05-29T14:04:59;3.50;;;3.17;;
51122;SDS011;37162;41.724;13.346;2023-05-29T14:07:25;5.28;;;3.47;;
51122;SDS011;37162;41.724;13.346;2023-05-29T14:09:51;4.05;;;3.30;;
51122;SDS011;37162;41.724;13.346;2023-05-29T14:12:16;6.10;;;3.67;;
51122;SDS011;37162;41.724;13.346;2023-05-29T14:14:42;3.28;;;2.80;;
51122;SDS011;37162;41.724;13.346;2023-05-29T14:17:07;4.47;;;3.40;;
51122;SDS011;37162;41.724;13.346;2023-05-29T14:19:33;4.30;;;3.25;;
51122;SDS011;37162;41.724;13.346;2023-05-29T14:21:59;5.53;;;3.00;;
51122;SDS011;37162;41.724;13.346;2023-05-29T14:24:25;3.08;;;2.55;;
51122;SDS011;37162;41.724;13.346;2023-05-29T14:26:51;3.65;;;3.08;;
51122;SDS011;37162;41.724;13.346;2023-05-29T14:29:17;3.63;;;3.17;;
51122;SDS011;37162;41.724;13.346;2023-05-29T14:31:43;4.63;;;2.97;;
51122;SDS011;37162;41.724;13.346;2023-05-29T14:34:09;3.47;;;2.80;;
51122;SDS011;37162;41.724;13.346;2023-05-29T14:36:35;3.55;;;2.85;;
51122;SDS011;37162;41.724;13.346;2023-05-29T14:39:02;4.40;;;3.08;;
51122;SDS011;37162;41.724;13.346;2023-05-29T14:41:28;5.32;;;3.60;;
51122;SDS011;37162;41.724;13.346;2023-05-29T14:43:54;3.17;;;2.88;;
51122;SDS011;37162;41.724;13.346;2023-05-29T14:46:23;5.80;;;3.40;;
51122;SDS011;37162;41.724;13.346;2023-05-29T14:48:49;3.78;;;2.80;;
51122;SDS011;37162;41.724;13.346;2023-05-29T14:51:15;4.40;;;2.70;;
51122;SDS011;37162;41.724;13.346;2023-05-29T14:53:41;3.33;;;3.03;;
51122;SDS011;37162;41.724;13.346;2023-05-29T14:56:06;3.45;;;3.00;;
51122;SDS011;37162;41.724;13.346;2023-05-29T14:58:32;4.07;;;3.13;;
51122;SDS011;37162;41.724;13.346;2023-05-29T15:00:57;2.85;;;2.60;;
51122;SDS011;37162;41.724;13.346;2023-05-29T15:03:23;4.63;;;2.63;;
51122;SDS011;37162;41.724;13.346;2023-05-29T15:05:52;3.05;;;2.75;;
51122;SDS011;37162;41.724;13.346;2023-05-29T15:08:18;4.50;;;3.13;;
51122;SDS011;37162;41.724;13.346;2023-05-29T15:10:43;4.47;;;3.05;;
51122;SDS011;37162;41.724;13.346;2023-05-29T15:13:08;3.03;;;2.70;;
51122;SDS011;37162;41.724;13.346;2023-05-29T15:15:34;4.47;;;3.22;;
51122;SDS011;37162;41.724;13.346;2023-05-29T15:17:59;3.78;;;2.80;;